sensor_id;sensor_type;location;lat;lon;timestamp;P1;durP1;ratioP1;P2;durP2;ratioP2
12112;SDS011;6120;52.250;8.478;2022-07-25T00:00:24;7.60;;;4.90;;
12112;SDS011;6120;52.250;8.478;2022-07-25T00:02:51;8.70;;;5.60;;
12112;SDS011;6120;52.250;8.478;2022-07-25T00:05:19;5.68;;;4.47;;
12112;SDS011;6120;52.250;8.478;2022-07-25T00:07:45;7.00;;;5.03;;
12112;SDS011;6120;52.250;8.478;2022-07-25T00:10:12;5.40;;;4.60;;
12112;SDS011;6120;52.250;8.478;2022-07-25T00:12:39;7.45;;;5.32;;
12112;SDS011;6120;52.250;8.478;2022-07-25T00:15:05;8.05;;;5.05;;
12112;SDS011;6120;52.250;8.478;2022-07-25T00:17:32;6.45;;;5.00;;
12112;SDS011;6120;52.250;8.478;2022-07-25T00:19:59;5.68;;;4.50;;
12112;SDS011;6120;52.250;8.478;2022-07-25T00:22:26;8.13;;;4.68;;
12112;SDS011;6120;52.250;8.478;2022-07-25T00:24:53;7.68;;;5.43;;
12112;SDS011;6120;52.250;8.478;2022-07-25T00:27:19;6.65;;;4.60;;
12112;SDS011;6120;52.250;8.478;2022-07-25T00:29:46;7.93;;;5.28;;
12112;SDS011;6120;52.250;8.478;2022-07-25T00:32:13;6.65;;;5.13;;
12112;SDS011;6120;52.250;8.478;2022-07-25T00:34:39;6.47;;;4.93;;
12112;SDS011;6120;52.250;8.478;2022-07-25T00:37:06;6.22;;;5.03;;
12112;SDS011;6120;52.250;8.478;2022-07-25T00:39:33;6.00;;;4.72;;
12112;SDS011;6120;52.250;8.478;2022-07-25T00:44:29;6.38;;;5.03;;
12112;SDS011;6120;52.250;8.478;2022-07-25T00:46:57;6.20;;;4.50;;
12112;SDS011;6120;52.250;8.478;2022-07-25T00:49:24;6.68;;;4.85;;
12112;SDS011;6120;52.250;8.478;2022-07-25T00:51:51;7.35;;;5.00;;
12112;SDS011;6120;52.250;8.478;2022-07-25T00:54:19;7.45;;;5.60;;
12112;SDS011;6120;52.250;8.478;2022-07-25T00:56:46;7.05;;;5.15;;
12112;SDS011;6120;52.250;8.478;2022-07-25T00:59:13;6.65;;;4.90;;
12112;SDS011;6120;52.250;8.478;2022-07-25T01:01:42;7.05;;;5.03;;
12112;SDS011;6120;52.250;8.478;2022-07-25T01:04:10;7.72;;;5.55;;
12112;SDS011;6120;52.250;8.478;2022-07-25T01:06:37;6.43;;;4.80;;
12112;SDS011;6120;52.250;8.478;2022-07-25T01:09:04;6.28;;;4.90;;
12112;SDS011;6120;52.250;8.478;2022-07-25T01:11:30;7.15;;;4.78;;
12112;SDS011;6120;52.250;8.478;2022-07-25T01:13:57;7.47;;;5.15;;
12112;SDS011;6120;52.250;8.478;2022-07-25T01:16:24;9.75;;;5.10;;
12112;SDS011;6120;52.250;8.478;2022-07-25T01:18:51;7.72;;;5.05;;
12112;SDS011;6120;52.250;8.478;2022-07-25T01:21:17;6.72;;;4.97;;
12112;SDS011;6120;52.250;8.478;2022-07-25T01:23:44;7.35;;;5.28;;
12112;SDS011;6120;52.250;8.478;2022-07-25T01:26:10;10.70;;;6.00;;
12112;SDS011;6120;52.250;8.478;2022-07-25T01:28:37;7.72;;;5.80;;
12112;SDS011;6120;52.250;8.478;2022-07-25T01:31:04;7.10;;;5.40;;
12112;SDS011;6120;52.250;8.478;2022-07-25T01:33:31;7.43;;;5.03;;
12112;SDS011;6120;52.250;8.478;2022-07-25T01:35:58;7.07;;;5.18;;
12112;SDS011;6120;52.250;8.478;2022-07-25T01:38:24;7.47;;;5.43;;
12112;SDS011;6120;52.250;8.478;2022-07-25T01:40:51;7.70;;;5.15;;
12112;SDS011;6120;52.250;8.478;2022-07-25T01:43:18;8.05;;;5.80;;
12112;SDS011;6120;52.250;8.478;2022-07-25T01:45:44;8.57;;;5.47;;
12112;SDS011;6120;52.250;8.478;2022-07-25T01:48:11;6.55;;;5.03;;
12112;SDS011;6120;52.250;8.478;2022-07-25T01:50:38;10.68;;;5.47;;
12112;SDS011;6120;52.250;8.478;2022-07-25T01:53:04;7.07;;;5.40;;
12112;SDS011;6120;52.250;8.478;2022-07-25T01:55:31;6.97;;;5.57;;
12112;SDS011;6120;52.250;8.478;2022-07-25T01:57:58;8.55;;;5.50;;
12112;SDS011;6120;52.250;8.478;2022-07-25T02:00:24;7.07;;;5.45;;
12112;SDS011;6120;52.250;8.478;2022-07-25T02:02:51;7.78;;;5.80;;
12112;SDS011;6120;52.250;8.478;2022-07-25T02:05:36;9.55;;;5.78;;
12112;SDS011;6120;52.250;8.478;2022-07-25T02:08:03;6.60;;;5.13;;
12112;SDS011;6120;52.250;8.478;2022-07-25T02:10:30;7.90;;;5.65;;
12112;SDS011;6120;52.250;8.478;2022-07-25T02:12:57;7.38;;;5.30;;
12112;SDS011;6120;52.250;8.478;2022-07-25T02:15:23;7.75;;;5.13;;
12112;SDS011;6120;52.250;8.478;2022-07-25T02:17:50;7.75;;;5.57;;
12112;SDS011;6120;52.250;8.478;2022-07-25T02:20:17;6.88;;;5.38;;
12112;SDS011;6120;52.250;8.478;2022-07-25T02:22:43;6.13;;;4.65;;
12112;SDS011;6120;52.250;8.478;2022-07-25T02:25:10;7.25;;;5.53;;
12112;SDS011;6120;52.250;8.478;2022-07-25T02:27:37;6.68;;;4.85;;
12112;SDS011;6120;52.250;8.478;2022-07-25T02:30:04;9.73;;;6.03;;
12112;SDS011;6120;52.250;8.478;2022-07-25T02:32:31;7.43;;;4.97;;
12112;SDS011;6120;52.250;8.478;2022-07-25T02:34:58;8.75;;;4.90;;
12112;SDS011;6120;52.250;8.478;2022-07-25T02:37:24;7.70;;;5.43;;
12112;SDS011;6120;52.250;8.478;2022-07-25T02:39:51;6.00;;;5.00;;
12112;SDS011;6120;52.250;8.478;2022-07-25T02:42:18;6.88;;;5.63;;
12112;SDS011;6120;52.250;8.478;2022-07-25T02:44:44;8.82;;;5.50;;
12112;SDS011;6120;52.250;8.478;2022-07-25T02:47:11;6.03;;;4.85;;
12112;SDS011;6120;52.250;8.478;2022-07-25T02:49:38;8.32;;;5.13;;
12112;SDS011;6120;52.250;8.478;2022-07-25T02:52:04;8.10;;;5.82;;
12112;SDS011;6120;52.250;8.478;2022-07-25T02:54:31;8.05;;;4.97;;
12112;SDS011;6120;52.250;8.478;2022-07-25T02:56:57;6.07;;;4.97;;
12112;SDS011;6120;52.250;8.478;2022-07-25T02:59:24;7.30;;;5.15;;
12112;SDS011;6120;52.250;8.478;2022-07-25T03:01:57;7.68;;;5.50;;
12112;SDS011;6120;52.250;8.478;2022-07-25T03:04:24;7.82;;;5.50;;
12112;SDS011;6120;52.250;8.478;2022-07-25T03:06:51;7.57;;;5.28;;
12112;SDS011;6120;52.250;8.478;2022-07-25T03:09:17;5.95;;;4.93;;
12112;SDS011;6120;52.250;8.478;2022-07-25T03:11:44;7.68;;;5.10;;
12112;SDS011;6120;52.250;8.478;2022-07-25T03:14:11;7.38;;;5.47;;
12112;SDS011;6120;52.250;8.478;2022-07-25T03:16:37;8.35;;;4.95;;
12112;SDS011;6120;52.250;8.478;2022-07-25T03:19:04;9.52;;;6.07;;
12112;SDS011;6120;52.250;8.478;2022-07-25T03:21:38;6.93;;;5.40;;
12112;SDS011;6120;52.250;8.478;2022-07-25T03:24:05;7.40;;;5.88;;
12112;SDS011;6120;52.250;8.478;2022-07-25T03:26:32;7.97;;;6.32;;
12112;SDS011;6120;52.250;8.478;2022-07-25T03:28:59;8.77;;;5.40;;
12112;SDS011;6120;52.250;8.478;2022-07-25T03:31:25;9.32;;;5.10;;
12112;SDS011;6120;52.250;8.478;2022-07-25T03:33:52;7.13;;;5.38;;
12112;SDS011;6120;52.250;8.478;2022-07-25T03:36:18;8.15;;;5.57;;
12112;SDS011;6120;52.250;8.478;2022-07-25T03:38:46;8.50;;;5.80;;
12112;SDS011;6120;52.250;8.478;2022-07-25T03:41:12;8.15;;;5.30;;
12112;SDS011;6120;52.250;8.478;2022-07-25T03:43:39;7.70;;;5.32;;
12112;SDS011;6120;52.250;8.478;2022-07-25T03:46:05;6.72;;;5.10;;
12112;SDS011;6120;52.250;8.478;2022-07-25T03:48:32;7.32;;;4.75;;
12112;SDS011;6120;52.250;8.478;2022-07-25T03:50:59;7.07;;;5.65;;
12112;SDS011;6120;52.250;8.478;2022-07-25T03:53:32;8.05;;;5.43;;
12112;SDS011;6120;52.250;8.478;2022-07-25T03:55:59;7.47;;;5.20;;
12112;SDS011;6120;52.250;8.478;2022-07-25T03:58:25;7.68;;;5.20;;
12112;SDS011;6120;52.250;8.478;2022-07-25T04:00:52;7.50;;;5.35;;
12112;SDS011;6120;52.250;8.478;2022-07-25T04:03:19;8.25;;;5.10;;
12112;SDS011;6120;52.250;8.478;2022-07-25T04:05:45;8.43;;;5.72;;
12112;SDS011;6120;52.250;8.478;2022-07-25T04:08:13;7.32;;;5.03;;
12112;SDS011;6120;52.250;8.478;2022-07-25T04:10:39;8.60;;;5.35;;
12112;SDS011;6120;52.250;8.478;2022-07-25T04:13:06;7.55;;;5.63;;
12112;SDS011;6120;52.250;8.478;2022-07-25T04:15:33;9.30;;;5.65;;
12112;SDS011;6120;52.250;8.478;2022-07-25T04:18:00;9.07;;;5.40;;
12112;SDS011;6120;52.250;8.478;2022-07-25T04:20:29;7.15;;;5.15;;
12112;SDS011;6120;52.250;8.478;2022-07-25T04:22:55;9.80;;;5.78;;
12112;SDS011;6120;52.250;8.478;2022-07-25T04:25:22;10.82;;;5.50;;
12112;SDS011;6120;52.250;8.478;2022-07-25T04:27:49;6.88;;;5.28;;
12112;SDS011;6120;52.250;8.478;2022-07-25T04:30:15;6.47;;;4.97;;
12112;SDS011;6120;52.250;8.478;2022-07-25T04:32:50;8.02;;;5.15;;
12112;SDS011;6120;52.250;8.478;2022-07-25T04:35:16;6.93;;;5.53;;
12112;SDS011;6120;52.250;8.478;2022-07-25T04:37:43;9.15;;;5.57;;
12112;SDS011;6120;52.250;8.478;2022-07-25T04:40:10;7.53;;;5.03;;
12112;SDS011;6120;52.250;8.478;2022-07-25T04:42:37;8.57;;;5.85;;
12112;SDS011;6120;52.250;8.478;2022-07-25T04:45:03;8.82;;;5.60;;
12112;SDS011;6120;52.250;8.478;2022-07-25T04:47:30;6.45;;;4.72;;
12112;SDS011;6120;52.250;8.478;2022-07-25T04:49:57;6.82;;;4.97;;
12112;SDS011;6120;52.250;8.478;2022-07-25T04:52:24;7.50;;;4.88;;
12112;SDS011;6120;52.250;8.478;2022-07-25T04:54:50;9.38;;;5.65;;
12112;SDS011;6120;52.250;8.478;2022-07-25T04:57:17;7.57;;;5.38;;
12112;SDS011;6120;52.250;8.478;2022-07-25T04:59:44;8.35;;;4.90;;
12112;SDS011;6120;52.250;8.478;2022-07-25T05:02:11;8.75;;;5.10;;
12112;SDS011;6120;52.250;8.478;2022-07-25T05:04:37;6.32;;;4.75;;
12112;SDS011;6120;52.250;8.478;2022-07-25T05:07:10;7.80;;;5.15;;
12112;SDS011;6120;52.250;8.478;2022-07-25T05:09:37;6.53;;;4.88;;
12112;SDS011;6120;52.250;8.478;2022-07-25T05:12:03;6.28;;;4.78;;
12112;SDS011;6120;52.250;8.478;2022-07-25T05:14:30;7.72;;;5.00;;
12112;SDS011;6120;52.250;8.478;2022-07-25T05:16:57;7.28;;;5.53;;
12112;SDS011;6120;52.250;8.478;2022-07-25T05:19:23;6.97;;;5.38;;
12112;SDS011;6120;52.250;8.478;2022-07-25T05:21:50;6.85;;;5.15;;
12112;SDS011;6120;52.250;8.478;2022-07-25T05:24:17;6.53;;;5.00;;
12112;SDS011;6120;52.250;8.478;2022-07-25T05:26:44;8.45;;;5.00;;
12112;SDS011;6120;52.250;8.478;2022-07-25T05:29:10;7.00;;;5.53;;
12112;SDS011;6120;52.250;8.478;2022-07-25T05:31:37;5.97;;;4.95;;
12112;SDS011;6120;52.250;8.478;2022-07-25T05:34:04;6.60;;;5.22;;
12112;SDS011;6120;52.250;8.478;2022-07-25T05:36:31;7.65;;;5.35;;
12112;SDS011;6120;52.250;8.478;2022-07-25T05:38:58;9.48;;;5.28;;
12112;SDS011;6120;52.250;8.478;2022-07-25T05:41:25;7.03;;;5.60;;
12112;SDS011;6120;52.250;8.478;2022-07-25T05:43:52;7.57;;;4.40;;
12112;SDS011;6120;52.250;8.478;2022-07-25T05:46:18;6.88;;;5.22;;
12112;SDS011;6120;52.250;8.478;2022-07-25T05:48:45;6.93;;;4.63;;
12112;SDS011;6120;52.250;8.478;2022-07-25T05:51:12;7.13;;;5.00;;
12112;SDS011;6120;52.250;8.478;2022-07-25T05:53:38;6.45;;;5.20;;
12112;SDS011;6120;52.250;8.478;2022-07-25T05:56:05;8.15;;;5.18;;
12112;SDS011;6120;52.250;8.478;2022-07-25T05:58:32;7.18;;;5.05;;
12112;SDS011;6120;52.250;8.478;2022-07-25T06:00:58;6.20;;;5.07;;
12112;SDS011;6120;52.250;8.478;2022-07-25T06:03:25;7.18;;;5.50;;
12112;SDS011;6120;52.250;8.478;2022-07-25T06:05:53;6.75;;;5.18;;
12112;SDS011;6120;52.250;8.478;2022-07-25T06:08:20;7.90;;;5.53;;
12112;SDS011;6120;52.250;8.478;2022-07-25T06:10:47;9.20;;;6.10;;
12112;SDS011;6120;52.250;8.478;2022-07-25T06:13:14;7.20;;;5.47;;
12112;SDS011;6120;52.250;8.478;2022-07-25T06:15:41;6.68;;;5.10;;
12112;SDS011;6120;52.250;8.478;2022-07-25T06:18:07;5.95;;;5.10;;
12112;SDS011;6120;52.250;8.478;2022-07-25T06:20:34;8.43;;;5.30;;
12112;SDS011;6120;52.250;8.478;2022-07-25T06:23:00;7.53;;;4.90;;
12112;SDS011;6120;52.250;8.478;2022-07-25T06:25:29;7.20;;;5.28;;
12112;SDS011;6120;52.250;8.478;2022-07-25T06:27:56;9.55;;;5.18;;
12112;SDS011;6120;52.250;8.478;2022-07-25T06:30:23;10.18;;;5.28;;
12112;SDS011;6120;52.250;8.478;2022-07-25T06:32:50;9.38;;;5.82;;
12112;SDS011;6120;52.250;8.478;2022-07-25T06:35:16;7.20;;;5.13;;
12112;SDS011;6120;52.250;8.478;2022-07-25T06:37:43;6.55;;;5.38;;
12112;SDS011;6120;52.250;8.478;2022-07-25T06:40:10;7.60;;;5.20;;
12112;SDS011;6120;52.250;8.478;2022-07-25T06:42:44;6.45;;;4.82;;
12112;SDS011;6120;52.250;8.478;2022-07-25T06:45:12;7.20;;;5.25;;
12112;SDS011;6120;52.250;8.478;2022-07-25T06:47:40;8.50;;;5.70;;
12112;SDS011;6120;52.250;8.478;2022-07-25T06:50:09;9.70;;;5.18;;
12112;SDS011;6120;52.250;8.478;2022-07-25T06:52:41;7.78;;;5.30;;
12112;SDS011;6120;52.250;8.478;2022-07-25T06:55:07;6.88;;;5.15;;
12112;SDS011;6120;52.250;8.478;2022-07-25T06:57:35;9.38;;;5.40;;
12112;SDS011;6120;52.250;8.478;2022-07-25T07:00:06;6.18;;;4.88;;
12112;SDS011;6120;52.250;8.478;2022-07-25T07:02:57;6.88;;;5.10;;
12112;SDS011;6120;52.250;8.478;2022-07-25T07:05:24;10.35;;;5.50;;
12112;SDS011;6120;52.250;8.478;2022-07-25T07:07:52;7.85;;;5.55;;
12112;SDS011;6120;52.250;8.478;2022-07-25T07:10:20;6.50;;;5.15;;
12112;SDS011;6120;52.250;8.478;2022-07-25T07:12:47;8.90;;;5.47;;
12112;SDS011;6120;52.250;8.478;2022-07-25T07:15:14;6.20;;;5.40;;
12112;SDS011;6120;52.250;8.478;2022-07-25T07:17:41;6.05;;;5.07;;
12112;SDS011;6120;52.250;8.478;2022-07-25T07:20:08;7.05;;;5.22;;
12112;SDS011;6120;52.250;8.478;2022-07-25T07:22:45;7.63;;;5.15;;
12112;SDS011;6120;52.250;8.478;2022-07-25T07:25:16;7.95;;;5.85;;
12112;SDS011;6120;52.250;8.478;2022-07-25T07:27:46;7.30;;;5.70;;
12112;SDS011;6120;52.250;8.478;2022-07-25T07:30:13;7.50;;;5.53;;
12112;SDS011;6120;52.250;8.478;2022-07-25T07:32:40;6.93;;;5.45;;
12112;SDS011;6120;52.250;8.478;2022-07-25T07:35:07;8.10;;;5.67;;
12112;SDS011;6120;52.250;8.478;2022-07-25T07:37:36;7.93;;;5.10;;
12112;SDS011;6120;52.250;8.478;2022-07-25T07:40:08;7.65;;;4.75;;
12112;SDS011;6120;52.250;8.478;2022-07-25T07:42:44;8.27;;;4.97;;
12112;SDS011;6120;52.250;8.478;2022-07-25T07:45:16;7.05;;;5.05;;
12112;SDS011;6120;52.250;8.478;2022-07-25T07:47:47;7.35;;;5.25;;
12112;SDS011;6120;52.250;8.478;2022-07-25T07:50:15;7.68;;;4.70;;
12112;SDS011;6120;52.250;8.478;2022-07-25T07:55:10;5.93;;;4.88;;
12112;SDS011;6120;52.250;8.478;2022-07-25T07:57:56;6.82;;;5.03;;
12112;SDS011;6120;52.250;8.478;2022-07-25T08:00:25;8.45;;;5.32;;
12112;SDS011;6120;52.250;8.478;2022-07-25T08:02:56;5.85;;;4.70;;
12112;SDS011;6120;52.250;8.478;2022-07-25T08:07:52;8.20;;;5.38;;
12112;SDS011;6120;52.250;8.478;2022-07-25T08:10:22;7.20;;;5.25;;
12112;SDS011;6120;52.250;8.478;2022-07-25T08:12:50;9.10;;;5.03;;
12112;SDS011;6120;52.250;8.478;2022-07-25T08:15:18;6.63;;;4.97;;
12112;SDS011;6120;52.250;8.478;2022-07-25T08:17:46;8.70;;;5.28;;
12112;SDS011;6120;52.250;8.478;2022-07-25T08:20:15;12.27;;;5.78;;
12112;SDS011;6120;52.250;8.478;2022-07-25T08:23:02;18.10;;;6.10;;
12112;SDS011;6120;52.250;8.478;2022-07-25T08:25:29;7.65;;;4.90;;
12112;SDS011;6120;52.250;8.478;2022-07-25T08:27:56;7.35;;;5.22;;
12112;SDS011;6120;52.250;8.478;2022-07-25T08:30:23;6.38;;;5.18;;
12112;SDS011;6120;52.250;8.478;2022-07-25T08:32:54;8.40;;;5.40;;
12112;SDS011;6120;52.250;8.478;2022-07-25T08:35:23;6.80;;;4.97;;
12112;SDS011;6120;52.250;8.478;2022-07-25T08:37:50;6.50;;;4.87;;
12112;SDS011;6120;52.250;8.478;2022-07-25T08:40:18;7.82;;;5.38;;
12112;SDS011;6120;52.250;8.478;2022-07-25T08:42:45;6.78;;;4.70;;
12112;SDS011;6120;52.250;8.478;2022-07-25T08:45:13;6.60;;;4.85;;
12112;SDS011;6120;52.250;8.478;2022-07-25T08:47:45;9.98;;;5.80;;
12112;SDS011;6120;52.250;8.478;2022-07-25T08:50:14;6.70;;;5.20;;
12112;SDS011;6120;52.250;8.478;2022-07-25T08:52:42;8.10;;;5.35;;
12112;SDS011;6120;52.250;8.478;2022-07-25T08:55:11;6.20;;;4.88;;
12112;SDS011;6120;52.250;8.478;2022-07-25T08:57:49;7.53;;;5.60;;
12112;SDS011;6120;52.250;8.478;2022-07-25T09:00:20;6.15;;;5.22;;
12112;SDS011;6120;52.250;8.478;2022-07-25T09:02:56;9.35;;;5.40;;
12112;SDS011;6120;52.250;8.478;2022-07-25T09:05:28;10.88;;;6.50;;
12112;SDS011;6120;52.250;8.478;2022-07-25T09:07:57;7.75;;;5.63;;
12112;SDS011;6120;52.250;8.478;2022-07-25T09:10:32;7.60;;;5.85;;
12112;SDS011;6120;52.250;8.478;2022-07-25T09:13:00;7.13;;;5.43;;
12112;SDS011;6120;52.250;8.478;2022-07-25T09:15:32;8.70;;;5.40;;
12112;SDS011;6120;52.250;8.478;2022-07-25T09:18:04;8.30;;;5.40;;
12112;SDS011;6120;52.250;8.478;2022-07-25T09:20:45;7.07;;;5.40;;
12112;SDS011;6120;52.250;8.478;2022-07-25T09:23:37;10.18;;;5.45;;
12112;SDS011;6120;52.250;8.478;2022-07-25T09:26:08;7.50;;;5.63;;
12112;SDS011;6120;52.250;8.478;2022-07-25T09:28:49;8.55;;;5.55;;
12112;SDS011;6120;52.250;8.478;2022-07-25T09:31:18;6.93;;;5.32;;
12112;SDS011;6120;52.250;8.478;2022-07-25T09:33:46;7.88;;;5.45;;
12112;SDS011;6120;52.250;8.478;2022-07-25T09:36:17;7.68;;;5.80;;
12112;SDS011;6120;52.250;8.478;2022-07-25T09:38:53;11.48;;;5.97;;
12112;SDS011;6120;52.250;8.478;2022-07-25T09:41:35;8.05;;;5.50;;
12112;SDS011;6120;52.250;8.478;2022-07-25T09:44:03;8.70;;;6.05;;
12112;SDS011;6120;52.250;8.478;2022-07-25T09:46:41;9.48;;;5.85;;
12112;SDS011;6120;52.250;8.478;2022-07-25T09:49:08;8.02;;;5.50;;
12112;SDS011;6120;52.250;8.478;2022-07-25T09:51:40;9.40;;;5.38;;
12112;SDS011;6120;52.250;8.478;2022-07-25T09:54:07;7.25;;;5.25;;
12112;SDS011;6120;52.250;8.478;2022-07-25T09:56:34;6.50;;;5.07;;
12112;SDS011;6120;52.250;8.478;2022-07-25T09:59:02;7.40;;;5.22;;
12112;SDS011;6120;52.250;8.478;2022-07-25T10:01:37;6.07;;;4.70;;
12112;SDS011;6120;52.250;8.478;2022-07-25T10:04:15;9.07;;;5.00;;
12112;SDS011;6120;52.250;8.478;2022-07-25T10:07:29;9.00;;;5.30;;
12112;SDS011;6120;52.250;8.478;2022-07-25T10:09:41;9.98;;;5.40;;
12112;SDS011;6120;52.250;8.478;2022-07-25T10:12:13;6.25;;;5.25;;
12112;SDS011;6120;52.250;8.478;2022-07-25T10:15:02;8.55;;;5.05;;
12112;SDS011;6120;52.250;8.478;2022-07-25T10:17:30;7.30;;;5.30;;
12112;SDS011;6120;52.250;8.478;2022-07-25T10:19:57;7.40;;;5.35;;
12112;SDS011;6120;52.250;8.478;2022-07-25T10:25:21;7.32;;;5.30;;
12112;SDS011;6120;52.250;8.478;2022-07-25T10:27:49;9.75;;;5.30;;
12112;SDS011;6120;52.250;8.478;2022-07-25T10:30:23;7.07;;;4.85;;
12112;SDS011;6120;52.250;8.478;2022-07-25T10:32:55;7.40;;;5.05;;
12112;SDS011;6120;52.250;8.478;2022-07-25T10:35:26;8.85;;;5.68;;
12112;SDS011;6120;52.250;8.478;2022-07-25T10:37:54;6.88;;;4.93;;
12112;SDS011;6120;52.250;8.478;2022-07-25T10:43:01;10.80;;;5.47;;
12112;SDS011;6120;52.250;8.478;2022-07-25T10:45:35;7.82;;;5.38;;
12112;SDS011;6120;52.250;8.478;2022-07-25T10:48:07;7.03;;;5.20;;
12112;SDS011;6120;52.250;8.478;2022-07-25T10:50:45;8.02;;;5.07;;
12112;SDS011;6120;52.250;8.478;2022-07-25T10:53:30;16.83;;;6.13;;
12112;SDS011;6120;52.250;8.478;2022-07-25T10:56:04;6.40;;;4.83;;
12112;SDS011;6120;52.250;8.478;2022-07-25T11:01:11;5.90;;;4.70;;
12112;SDS011;6120;52.250;8.478;2022-07-25T11:03:42;6.43;;;4.75;;
12112;SDS011;6120;52.250;8.478;2022-07-25T11:06:12;8.15;;;5.50;;
12112;SDS011;6120;52.250;8.478;2022-07-25T11:08:40;7.40;;;4.97;;
12112;SDS011;6120;52.250;8.478;2022-07-25T11:11:08;7.93;;;5.00;;
12112;SDS011;6120;52.250;8.478;2022-07-25T11:13:36;6.85;;;4.60;;
12112;SDS011;6120;52.250;8.478;2022-07-25T11:16:04;7.03;;;5.30;;
12112;SDS011;6120;52.250;8.478;2022-07-25T11:18:32;8.38;;;5.40;;
12112;SDS011;6120;52.250;8.478;2022-07-25T11:21:00;8.70;;;5.22;;
12112;SDS011;6120;52.250;8.478;2022-07-25T11:23:32;7.47;;;4.82;;
12112;SDS011;6120;52.250;8.478;2022-07-25T11:26:06;9.18;;;5.57;;
12112;SDS011;6120;52.250;8.478;2022-07-25T11:28:39;6.95;;;5.50;;
12112;SDS011;6120;52.250;8.478;2022-07-25T11:31:11;7.47;;;5.35;;
12112;SDS011;6120;52.250;8.478;2022-07-25T11:33:40;6.03;;;4.55;;
12112;SDS011;6120;52.250;8.478;2022-07-25T11:36:09;7.32;;;5.05;;
12112;SDS011;6120;52.250;8.478;2022-07-25T11:38:37;7.70;;;5.23;;
12112;SDS011;6120;52.250;8.478;2022-07-25T11:41:04;7.03;;;5.32;;
12112;SDS011;6120;52.250;8.478;2022-07-25T11:43:32;8.35;;;5.57;;
12112;SDS011;6120;52.250;8.478;2022-07-25T11:46:00;8.23;;;5.25;;
12112;SDS011;6120;52.250;8.478;2022-07-25T11:48:29;9.43;;;5.10;;
12112;SDS011;6120;52.250;8.478;2022-07-25T11:50:57;8.90;;;5.38;;
12112;SDS011;6120;52.250;8.478;2022-07-25T11:53:24;6.90;;;5.30;;
12112;SDS011;6120;52.250;8.478;2022-07-25T11:55:51;9.13;;;5.22;;
12112;SDS011;6120;52.250;8.478;2022-07-25T11:58:18;8.38;;;5.28;;
12112;SDS011;6120;52.250;8.478;2022-07-25T12:00:46;11.93;;;6.38;;
12112;SDS011;6120;52.250;8.478;2022-07-25T12:03:15;6.60;;;5.07;;
12112;SDS011;6120;52.250;8.478;2022-07-25T12:05:46;6.63;;;5.40;;
12112;SDS011;6120;52.250;8.478;2022-07-25T12:08:14;5.82;;;4.85;;
12112;SDS011;6120;52.250;8.478;2022-07-25T12:10:42;10.10;;;5.75;;
12112;SDS011;6120;52.250;8.478;2022-07-25T12:13:23;10.45;;;5.88;;
12112;SDS011;6120;52.250;8.478;2022-07-25T12:15:51;7.70;;;5.65;;
12112;SDS011;6120;52.250;8.478;2022-07-25T12:18:18;7.07;;;5.53;;
12112;SDS011;6120;52.250;8.478;2022-07-25T12:20:45;7.68;;;5.97;;
12112;SDS011;6120;52.250;8.478;2022-07-25T12:23:12;7.90;;;5.40;;
12112;SDS011;6120;52.250;8.478;2022-07-25T12:25:43;7.60;;;5.37;;
12112;SDS011;6120;52.250;8.478;2022-07-25T12:28:10;7.00;;;5.28;;
12112;SDS011;6120;52.250;8.478;2022-07-25T12:30:38;7.93;;;5.47;;
12112;SDS011;6120;52.250;8.478;2022-07-25T12:33:05;10.20;;;5.82;;
12112;SDS011;6120;52.250;8.478;2022-07-25T12:35:33;9.93;;;5.97;;
12112;SDS011;6120;52.250;8.478;2022-07-25T12:38:02;8.75;;;5.88;;
12112;SDS011;6120;52.250;8.478;2022-07-25T12:40:29;9.70;;;5.78;;
12112;SDS011;6120;52.250;8.478;2022-07-25T12:42:56;9.63;;;5.70;;
12112;SDS011;6120;52.250;8.478;2022-07-25T12:45:24;9.80;;;5.55;;
12112;SDS011;6120;52.250;8.478;2022-07-25T12:47:51;9.43;;;5.57;;
12112;SDS011;6120;52.250;8.478;2022-07-25T12:50:17;6.40;;;5.30;;
12112;SDS011;6120;52.250;8.478;2022-07-25T12:52:44;7.97;;;5.43;;
12112;SDS011;6120;52.250;8.478;2022-07-25T12:55:13;11.75;;;5.93;;
12112;SDS011;6120;52.250;8.478;2022-07-25T12:57:41;11.93;;;5.78;;
12112;SDS011;6120;52.250;8.478;2022-07-25T13:00:10;10.18;;;5.75;;
12112;SDS011;6120;52.250;8.478;2022-07-25T13:02:38;10.50;;;5.75;;
12112;SDS011;6120;52.250;8.478;2022-07-25T13:05:06;10.82;;;5.90;;
12112;SDS011;6120;52.250;8.478;2022-07-25T13:07:33;10.68;;;6.18;;
12112;SDS011;6120;52.250;8.478;2022-07-25T13:10:00;10.32;;;6.30;;
12112;SDS011;6120;52.250;8.478;2022-07-25T13:12:28;13.15;;;6.60;;
12112;SDS011;6120;52.250;8.478;2022-07-25T13:14:55;13.65;;;6.85;;
12112;SDS011;6120;52.250;8.478;2022-07-25T13:17:25;11.32;;;6.22;;
12112;SDS011;6120;52.250;8.478;2022-07-25T13:19:54;10.45;;;7.03;;
12112;SDS011;6120;52.250;8.478;2022-07-25T13:24:48;10.93;;;6.70;;
12112;SDS011;6120;52.250;8.478;2022-07-25T13:27:19;9.77;;;6.22;;
12112;SDS011;6120;52.250;8.478;2022-07-25T13:29:46;13.52;;;7.07;;
12112;SDS011;6120;52.250;8.478;2022-07-25T13:32:19;11.98;;;6.22;;
12112;SDS011;6120;52.250;8.478;2022-07-25T13:34:46;8.95;;;6.30;;
12112;SDS011;6120;52.250;8.478;2022-07-25T13:37:13;10.40;;;6.68;;
12112;SDS011;6120;52.250;8.478;2022-07-25T13:39:40;9.02;;;6.10;;
12112;SDS011;6120;52.250;8.478;2022-07-25T13:42:07;19.65;;;6.55;;
12112;SDS011;6120;52.250;8.478;2022-07-25T13:44:34;10.30;;;6.60;;
12112;SDS011;6120;52.250;8.478;2022-07-25T13:47:01;11.07;;;6.37;;
12112;SDS011;6120;52.250;8.478;2022-07-25T13:49:28;9.73;;;6.53;;
12112;SDS011;6120;52.250;8.478;2022-07-25T13:51:54;9.02;;;6.30;;
12112;SDS011;6120;52.250;8.478;2022-07-25T13:54:21;7.97;;;6.28;;
12112;SDS011;6120;52.250;8.478;2022-07-25T13:56:48;11.05;;;6.72;;
12112;SDS011;6120;52.250;8.478;2022-07-25T13:59:14;10.50;;;6.65;;
12112;SDS011;6120;52.250;8.478;2022-07-25T14:01:47;11.95;;;7.07;;
12112;SDS011;6120;52.250;8.478;2022-07-25T14:04:14;30.92;;;6.97;;
12112;SDS011;6120;52.250;8.478;2022-07-25T14:06:41;32.13;;;7.17;;
12112;SDS011;6120;52.250;8.478;2022-07-25T14:09:08;15.30;;;6.40;;
12112;SDS011;6120;52.250;8.478;2022-07-25T14:11:35;10.80;;;5.60;;
12112;SDS011;6120;52.250;8.478;2022-07-25T14:14:02;7.72;;;5.65;;
12112;SDS011;6120;52.250;8.478;2022-07-25T14:16:29;23.27;;;6.32;;
12112;SDS011;6120;52.250;8.478;2022-07-25T14:18:55;16.63;;;6.72;;
12112;SDS011;6120;52.250;8.478;2022-07-25T14:21:22;11.40;;;5.20;;
12112;SDS011;6120;52.250;8.478;2022-07-25T14:26:17;7.25;;;4.85;;
12112;SDS011;6120;52.250;8.478;2022-07-25T14:28:43;8.80;;;4.72;;
12112;SDS011;6120;52.250;8.478;2022-07-25T14:31:10;24.17;;;5.10;;
12112;SDS011;6120;52.250;8.478;2022-07-25T14:33:37;17.73;;;5.22;;
12112;SDS011;6120;52.250;8.478;2022-07-25T14:38:35;16.25;;;4.60;;
12112;SDS011;6120;52.250;8.478;2022-07-25T14:41:01;6.90;;;3.88;;
12112;SDS011;6120;52.250;8.478;2022-07-25T14:43:30;7.57;;;4.30;;
12112;SDS011;6120;52.250;8.478;2022-07-25T14:45:57;12.63;;;5.00;;
12112;SDS011;6120;52.250;8.478;2022-07-25T14:48:24;10.63;;;3.63;;
12112;SDS011;6120;52.250;8.478;2022-07-25T14:50:50;8.52;;;3.75;;
12112;SDS011;6120;52.250;8.478;2022-07-25T14:53:17;16.23;;;3.80;;
12112;SDS011;6120;52.250;8.478;2022-07-25T14:55:44;5.90;;;2.90;;
12112;SDS011;6120;52.250;8.478;2022-07-25T14:58:11;6.53;;;3.33;;
12112;SDS011;6120;52.250;8.478;2022-07-25T15:00:39;6.03;;;3.05;;
12112;SDS011;6120;52.250;8.478;2022-07-25T15:03:08;4.93;;;2.67;;
12112;SDS011;6120;52.250;8.478;2022-07-25T15:05:35;5.55;;;2.67;;
12112;SDS011;6120;52.250;8.478;2022-07-25T15:08:02;7.05;;;3.05;;
12112;SDS011;6120;52.250;8.478;2022-07-25T15:10:28;4.10;;;2.35;;
12112;SDS011;6120;52.250;8.478;2022-07-25T15:12:55;5.07;;;2.30;;
12112;SDS011;6120;52.250;8.478;2022-07-25T15:15:42;6.22;;;2.60;;
12112;SDS011;6120;52.250;8.478;2022-07-25T15:18:08;7.28;;;2.53;;
12112;SDS011;6120;52.250;8.478;2022-07-25T15:20:39;4.43;;;2.33;;
12112;SDS011;6120;52.250;8.478;2022-07-25T15:23:06;3.47;;;2.10;;
12112;SDS011;6120;52.250;8.478;2022-07-25T15:25:32;4.90;;;2.42;;
12112;SDS011;6120;52.250;8.478;2022-07-25T15:28:19;3.95;;;2.08;;
12112;SDS011;6120;52.250;8.478;2022-07-25T15:30:46;6.40;;;2.10;;